首页
METAR-TAF:

METAR-TAF

机场 :

克里斯蒂亚诺·罗纳尔多机场

丰沙尔, 馬德拉群岛, 葡萄牙

纬度: 32-41-52N, 经度: 016-46-28W, 海拔: 59米

当前天气观测

该预报发布于33分钟前的09:00 UTC
风速9节,风向,在西北东北之间变化
温度 23°C
湿度 57%
气压 1018 hPa
能见度10公里或以上
少量云层高于1600英尺
散云层高于3300英尺

METAR: LPMA 190900Z 01009KT 320V040 9999 FEW016 SCT033 23/14 Q1018

时间: 10:33 (09:33 UTC)

预报

该预报发布于4小时和33分钟前的05:00 UTC
预报有效从19日的 06点(UTC)到 20日的 06点(UTC)
风速10节,风向
能见度10公里或以上
散云层高于1500英尺
散云层高于3000英尺
短暂存在
从 19日的 06点(UTC)到 19日的 08点(UTC)
多云层高于1500英尺
成为
从 19日的 09点(UTC)到 19日的 12点(UTC)
少量云层高于1500英尺
几率 30% :
短暂存在
从 19日的 09点(UTC)到 19日的 18点(UTC)
风速8节,风向南转西南
成为
从 19日的 21点(UTC)到 19日的 23点(UTC)
风速5节,风向多变
成为
从 19日的 23点(UTC)到 20日的 02点(UTC)
风速8节,风向

TAF: LPMA 190500Z 1906/2006 01010KT 9999 SCT015 SCT030 TEMPO 1906/1908 BKN015 BECMG 1909/1912 FEW015 PROB30 TEMPO 1909/1918 20008KT BECMG 1921/1923 VRB05KT BECMG 1923/2002 19008KT

超过4000个机场的气象观测和天气预报(METAR&TAF报告)。

可查询的气象台以黄色和红色小点在地图上表示。

将鼠标移到小点上方,可查看气象台名称。

然后点击查看天气观测和预报。

如需切换地图:点击带黑十字的绿色按钮放大地图;点击带横线的绿色按钮缩小地图;或者点击绿色箭头查看邻近地区的地图。


METAR-TAF: